TimePST,TemperatureF,Dew PointF,Humidity,Sea Level PressureIn,VisibilityMPH,Wind Direction,Wind SpeedMPH,Gust SpeedMPH,PrecipitationIn,Events,Conditions,WindDirDegrees,DateUTC
12:56 AM,46.0,41.0,83,30.24,10.0,South,3.5,-,N/A,,Partly Cloudy,170,2013-02-14 08:56:00
1:56 AM,44.1,39.0,82,30.24,10.0,Calm,Calm,-,N/A,,Partly Cloudy,0,2013-02-14 09:56:00
2:56 AM,45.0,41.0,86,30.23,10.0,South,4.6,-,N/A,,Partly Cloudy,170,2013-02-14 10:56:00
3:19 AM,44.6,42.8,93,30.23,10.0,South,3.5,-,N/A,,Scattered Clouds,180,2013-02-14 11:19:00
3:32 AM,44.6,42.8,93,30.22,9.0,South,4.6,-,N/A,,Mostly Cloudy,170,2013-02-14 11:32:00
3:56 AM,46.4,42.8,87,30.22,6.0,SSE,5.8,-,N/A,,Mostly Cloudy,160,2013-02-14 11:56:00
4:13 AM,46.4,42.8,87,30.22,6.0,SSE,5.8,-,N/A,,Partly Cloudy,160,2013-02-14 12:13:00
4:56 AM,46.0,43.0,89,30.23,8.0,SE,3.5,-,N/A,,Partly Cloudy,140,2013-02-14 12:56:00
5:56 AM,43.0,39.9,89,30.23,10.0,Calm,Calm,-,N/A,,Clear,0,2013-02-14 13:56:00
6:56 AM,43.0,41.0,93,30.24,10.0,SSW,3.5,-,N/A,,Partly Cloudy,210,2013-02-14 14:56:00
7:56 AM,46.0,43.0,89,30.25,9.0,Calm,Calm,-,N/A,,Partly Cloudy,0,2013-02-14 15:56:00
8:56 AM,50.0,45.0,83,30.25,8.0,SE,3.5,-,N/A,,Partly Cloudy,140,2013-02-14 16:56:00
9:56 AM,51.1,46.0,83,30.25,9.0,ENE,4.6,-,N/A,,Partly Cloudy,60,2013-02-14 17:56:00
10:56 AM,55.0,45.0,69,30.24,10.0,ENE,5.8,-,N/A,,Clear,60,2013-02-14 18:56:00
11:56 AM,55.9,46.9,72,30.23,10.0,East,4.6,-,N/A,,Partly Cloudy,90,2013-02-14 19:56:00
12:56 PM,62.1,43.0,50,30.21,10.0,NE,3.5,-,N/A,,Clear,50,2013-02-14 20:56:00
1:56 PM,64.9,39.9,40,30.18,10.0,East,3.5,-,N/A,,Clear,80,2013-02-14 21:56:00
2:56 PM,64.9,39.9,40,30.17,10.0,SSE,3.5,-,N/A,,Clear,160,2013-02-14 22:56:00
3:56 PM,66.9,41.0,39,30.17,10.0,NW,5.8,-,N/A,,Clear,310,2013-02-14 23:56:00
4:56 PM,63.0,42.1,46,30.16,10.0,WNW,10.4,-,N/A,,Clear,290,2013-02-15 00:56:00
5:56 PM,57.9,39.9,51,30.17,10.0,WNW,9.2,-,N/A,,Clear,290,2013-02-15 01:56:00
6:56 PM,55.9,39.9,55,30.18,10.0,West,10.4,-,N/A,,Clear,280,2013-02-15 02:56:00
7:56 PM,57.9,41.0,53,30.18,10.0,Calm,Calm,-,N/A,,Clear,0,2013-02-15 03:56:00
8:56 PM,55.9,42.1,60,30.20,10.0,Calm,Calm,-,N/A,,Clear,0,2013-02-15 04:56:00
9:56 PM,54.0,46.0,75,30.20,10.0,Calm,Calm,-,N/A,,Clear,0,2013-02-15 05:56:00
10:56 PM,53.1,42.1,66,30.21,10.0,Calm,Calm,-,N/A,,Clear,0,2013-02-15 06:56:00
11:56 PM,51.1,43.0,74,30.22,10.0,Calm,Calm,-,N/A,,Clear,0,2013-02-15 07:56:00